M I D A S
Marine Information and Data Acquisition System
Tripno 523 of the Zeeleeuw from 2003-06-24 06:22:32 to 2003-06-24 11:27:24
Back to CruiseResearch ActivitiesStationsMapUnderway DataData graphs

EquipmentUnitsComment
TimeDGPSUTC
LatitudeDGPSDM.mWGS84
LongitudeDGPSDM.mWGS84
TemperatureSBE03/SBE38deg celciusITS90
ConductivitySBE21S/mITS90
SalinitySBE21 Practical Salinity Units
ChlorophylAChelsea fluorimeterg/lCalibrated in Aceton
Missing or incorrect values are displayed as -999
Sea surface data collected by the RV Zeeleeuw from 2003-06-24 06:22:32 to 2003-06-24 11:27:24
Time Latitude Longitude Temperature Conductivity Salinity ChlorophylA
2003-06-24 06:23:36 51°13.59 2°56.13 -999 5.076872 34.270235 -0.781249
2003-06-24 06:24:36 51°13.59 2°56.13 -999 5.076556 34.270943 -0.74754
2003-06-24 06:25:38 51°13.6 2°56.07 -999 5.076239 34.271651 -0.781249
2003-06-24 06:26:40 51°13.62 2°55.98 -999 5.075711 34.270758 -0.781249
2003-06-24 06:27:40 51°13.65 2°55.89 -999 5.075395 34.271466 -0.781249
2003-06-24 06:28:40 51°13.69 2°55.79 -999 5.075078 34.271138 -0.781249
2003-06-24 06:29:40 51°13.73 2°55.73 -999 5.074656 34.271564 -0.814958
2003-06-24 06:30:36 51°13.73 2°55.72 -999 5.074339 34.271754 -0.781249
2003-06-24 06:31:36 51°13.72 2°55.71 -999 5.073917 34.272181 -0.781249
2003-06-24 06:32:38 51°13.73 2°55.73 -999 5.073495 34.270533 -0.814958
2003-06-24 06:33:36 51°13.73 2°55.7 -999 5.073284 34.273081 -0.781249
2003-06-24 06:34:36 51°13.73 2°55.7 -999 5.072862 34.271433 -0.74754
2003-06-24 06:35:36 51°13.79 2°55.64 -999 5.072545 34.272662 -0.74754
2003-06-24 06:36:36 51°13.9 2°55.57 -999 5.072228 34.271815 -0.781249
2003-06-24 06:37:36 51°14.02 2°55.49 -999 5.071806 34.271723 -0.781249
2003-06-24 06:38:36 51°14.13 2°55.41 -999 5.07149 34.271914 -0.781249
2003-06-24 06:39:36 51°14.24 2°55.29 -999 5.071173 34.272105 -0.74754
2003-06-24 06:40:36 51°14.33 2°55.11 -999 5.070962 34.272579 -0.74754
2003-06-24 06:41:36 51°14.48 2°54.95 -999 5.070434 34.272205 -0.814958
2003-06-24 06:42:44 51°14.67 2°54.76 -999 5.070117 34.272397 -0.814958
2003-06-24 06:43:56 51°14.88 2°54.56 -999 5.069695 34.271267 -0.781249
2003-06-24 06:44:56 51°15.06 2°54.38 -999 5.069484 34.27278 -0.74754
2003-06-24 06:46:00 51°15.26 2°54.17 -999 5.069273 34.273254 -0.74754
2003-06-24 06:47:12 51°15.49 2°53.94 -999 5.068956 34.272926 -0.814958
2003-06-24 06:48:16 51°15.69 2°53.74 -999 5.06864 34.274157 -0.814958
2003-06-24 06:49:24 51°15.92 2°53.55 -999 5.068323 34.273829 -0.781249
2003-06-24 06:50:32 51°16.15 2°53.36 -999 5.067901 34.2727 -0.814958
2003-06-24 06:51:36 51°16.37 2°53.18 -999 5.068007 34.27558 -0.781249
2003-06-24 06:52:40 51°16.58 2°53 -999 5.06769 34.274733 -0.814958
2003-06-24 06:53:40 51°16.77 2°52.84 -999 5.067162 34.273321 -0.814958
2003-06-24 06:54:48 51°17 2°52.65 -999 5.067373 34.276485 -0.781249
2003-06-24 06:55:50 51°17.23 2°52.6 -999 5.066951 34.275355 -0.781249
2003-06-24 06:56:56 51°17.48 2°52.57 -999 5.066635 34.275028 -0.781249
2003-06-24 06:58:00 51°17.72 2°52.54 -999 5.066635 34.276587 -0.781249
2003-06-24 06:59:02 51°17.96 2°52.51 -999 5.066318 34.27626 -0.781249
2003-06-24 07:00:10 51°18.22 2°52.49 -999 5.066001 34.275933 -0.814958
2003-06-24 07:01:10 51°18.43 2°52.63 -999 5.065685 34.276646 -0.781249
2003-06-24 07:02:20 51°18.54 2°53.03 -999 5.06579 34.279008 -0.74754
2003-06-24 07:03:30 51°18.66 2°53.44 -999 5.065579 34.278444 -0.781249
2003-06-24 07:04:36 51°18.78 2°53.82 -999 5.065474 34.279722 -0.781249
2003-06-24 07:05:34 51°18.88 2°54.16 -999 5.065263 34.279677 -0.781249
2003-06-24 07:06:44 51°19 2°54.57 -999 5.065051 34.280153 -0.781249
2003-06-24 07:07:50 51°19.11 2°54.96 -999 5.06484 34.281149 -0.74754
2003-06-24 07:08:56 51°19.23 2°55.35 -999 5.064524 34.279782 -0.781249
2003-06-24 07:10:04 51°19.35 2°55.76 -999 5.064418 34.28106 -0.814958
2003-06-24 07:11:04 51°19.45 2°56.12 -999 5.064207 34.281536 -0.814958
2003-06-24 07:12:16 51°19.58 2°56.54 -999 5.063996 34.280972 -0.814958
2003-06-24 07:13:24 51°19.69 2°56.95 -999 5.06389 34.282251 -0.781249
2003-06-24 07:14:36 51°19.82 2°57.38 -999 5.063679 34.282206 -0.781249
2003-06-24 07:15:40 51°19.93 2°57.76 -999 5.063679 34.283768 -0.814958
2003-06-24 07:16:50 51°20.04 2°58.18 -999 5.063257 34.282639 -0.814958
2003-06-24 07:17:50 51°20.14 2°58.55 -999 5.063257 34.2842 -0.781249
2003-06-24 07:18:56 51°20.24 2°58.95 -999 5.062941 34.282312 -0.781249
2003-06-24 07:20:10 51°20.35 2°59.4 -999 5.062941 34.284915 -0.74754
2003-06-24 07:21:14 51°20.44 2°59.8 -999 5.062518 34.282745 -0.814958
2003-06-24 07:22:20 51°20.54 3°0.21 -999 5.062518 34.284307 -0.814958
2003-06-24 07:23:30 51°20.64 3°0.64 -999 5.062413 34.285066 -0.74754
2003-06-24 07:24:40 51°20.75 3°1.07 -999 5.062413 34.285587 -0.781249
2003-06-24 07:25:50 51°20.85 3°1.5 -999 5.062202 34.285543 -0.781249
2003-06-24 07:26:54 51°20.95 3°1.9 -999 5.061991 34.28602 -0.781249
2003-06-24 07:28:04 51°21.05 3°2.33 -999 5.061991 34.287062 -0.781249
2003-06-24 07:29:04 51°21.14 3°2.7 -999 5.061991 34.287062 -0.781249
2003-06-24 07:30:16 51°21.24 3°3.15 -999 5.06178 34.287539 -0.74754
2003-06-24 07:31:20 51°21.32 3°3.56 -999 5.061674 34.288819 -0.74754
2003-06-24 07:32:20 51°21.4 3°3.94 -999 5.061463 34.287734 -0.814958
2003-06-24 07:33:20 51°21.47 3°4.33 -999 5.061463 34.288776 -0.781249
2003-06-24 07:34:24 51°21.55 3°4.74 -999 5.061358 34.289014 -0.814958
2003-06-24 07:35:24 51°21.62 3°5.12 -999 5.061146 34.28845 -0.781249
2003-06-24 07:36:36 51°21.71 3°5.59 -999 5.061146 34.289492 -0.781249
2003-06-24 07:37:40 51°21.78 3°6 -999 5.060935 34.288406 -0.781249
2003-06-24 07:38:40 51°21.84 3°6.39 -999 5.061041 34.290773 -0.814958
2003-06-24 07:39:40 51°21.9 3°6.78 -999 5.060935 34.291012 -0.781249
2003-06-24 07:40:44 51°21.96 3°7.2 -999 5.06083 34.290209 -0.781249
2003-06-24 07:41:44 51°22.01 3°7.6 -999 5.06083 34.291251 -0.814958
2003-06-24 07:42:48 51°22.07 3°8.02 -999 5.060935 34.294139 -0.781249
2003-06-24 07:43:48 51°22.12 3°8.42 -999 5.060935 34.294139 -0.781249
2003-06-24 07:44:56 51°22.18 3°8.88 -999 5.06083 34.294378 -0.781249
2003-06-24 07:46:00 51°22.24 3°9.31 -999 5.06083 34.294378 -0.814958
2003-06-24 07:47:00 51°22.29 3°9.71 -999 5.060724 34.295139 -0.781249
2003-06-24 07:48:00 51°22.34 3°10.12 -999 5.060619 34.294856 -0.781249
2003-06-24 07:49:10 51°22.4 3°10.59 -999 5.060513 34.294053 -0.781249
2003-06-24 07:50:10 51°22.45 3°10.99 -999 5.060619 34.295899 -0.781249
2003-06-24 07:51:10 51°22.5 3°11.4 -999 5.060619 34.29642 -0.74754
2003-06-24 07:52:16 51°22.56 3°11.85 -999 5.060724 34.297224 -0.814958
2003-06-24 07:53:16 51°22.61 3°12.26 -999 5.060408 34.295335 -0.781249
2003-06-24 07:54:14 51°22.66 3°12.65 -999 5.060619 34.297985 -0.781249
2003-06-24 07:55:14 51°22.71 3°13.06 -999 5.060408 34.296377 -0.781249
2003-06-24 07:56:24 51°22.76 3°13.54 -999 5.060619 34.298506 -0.781249
2003-06-24 07:57:24 51°22.86 3°13.91 -999 5.060513 34.299267 -0.74754
2003-06-24 07:58:24 51°23.07 3°13.96 -999 5.060408 34.298463 -0.781249
2003-06-24 07:59:30 51°23.24 3°13.72 -999 5.060619 34.299549 -0.74754
2003-06-24 08:00:36 51°23.4 3°13.46 -999 5.060619 34.301113 -0.781249
2003-06-24 08:01:36 51°23.55 3°13.23 -999 5.060513 34.30031 -0.781249
2003-06-24 08:02:36 51°23.7 3°12.99 -999 5.060408 34.298985 -0.781249
2003-06-24 08:03:36 51°23.82 3°12.74 -999 5.060408 34.298985 -0.781249
2003-06-24 08:04:34 51°23.92 3°12.46 -999 5.060513 34.30031 -0.781249
2003-06-24 08:05:36 51°24.02 3°12.16 -999 5.060513 34.299788 -0.814958
2003-06-24 08:06:36 51°24.11 3°11.88 -999 5.060619 34.301113 -0.781249
2003-06-24 08:07:36 51°24.21 3°11.6 -999 5.060725 34.302439 -0.781249
2003-06-24 08:08:34 51°24.28 3°11.31 -999 5.060725 34.301396 -0.814958
2003-06-24 08:09:36 51°24.29 3°10.99 -999 5.060936 34.303003 -0.781249
2003-06-24 08:10:36 51°24.31 3°10.66 -999 5.061041 34.304328 -0.74754
2003-06-24 08:11:34 51°24.32 3°10.34 -999 5.060936 34.303524 -0.781249
2003-06-24 08:12:36 51°24.29 3°10 -999 5.061147 34.305132 -0.814958
2003-06-24 08:13:36 51°24.27 3°9.67 -999 5.061147 34.306175 -0.781249
2003-06-24 08:14:36 51°24.25 3°9.34 -999 5.061252 34.306979 -0.814958
2003-06-24 08:15:36 51°24.24 3°9.01 40.759962 5.061147 34.305653 -0.781249
2003-06-24 08:16:36 51°24.22 3°8.68 41.770841 5.061252 34.306979 -0.781249
2003-06-24 08:17:36 51°24.2 3°8.34 43.894016 5.061358 34.306739 -0.781249
2003-06-24 08:18:36 51°24.18 3°8.01 44.113499 5.061569 34.308868 -0.781249
2003-06-24 08:19:36 51°24.16 3°7.68 42.349212 5.061569 34.307825 -0.781249
2003-06-24 08:20:36 51°24.14 3°7.35 42.949126 5.061358 34.306739 -0.74754
2003-06-24 08:21:36 51°24.12 3°7.03 42.901445 5.061675 34.308107 -0.781249
2003-06-24 08:22:36 51°24.1 3°6.71 45.120424 5.061886 34.309714 -0.781249
2003-06-24 08:23:36 51°24.08 3°6.38 38.593637 5.062202 34.311604 -0.781249
2003-06-24 08:24:36 51°24.13 3°6.06 39.066115 5.062097 34.311322 -0.781249
2003-06-24 08:25:36 51°24.21 3°5.76 38.037692 5.062097 34.311322 -0.781249
2003-06-24 08:26:36 51°24.3 3°5.45 38.278401 5.062519 34.313493 -0.814958
2003-06-24 08:27:36 51°24.39 3°5.14 35.182764 5.062519 34.314015 -0.781249
2003-06-24 08:28:36 51°24.47 3°4.83 39.014428 5.06273 34.314057 -0.781249
2003-06-24 08:29:36 51°24.55 3°4.52 39.487997 5.06273 34.314579 -0.781249
2003-06-24 08:30:36 51°24.63 3°4.22 37.223657 5.062625 34.313775 -0.781249
2003-06-24 08:31:36 51°24.72 3°3.9 37.491082 5.062836 34.315382 -0.781249
2003-06-24 08:32:36 51°24.81 3°3.62 37.500408 5.062836 34.314861 -0.781249
2003-06-24 08:33:36 51°24.89 3°3.31 38.964061 5.063047 34.315946 -0.781249
2003-06-24 08:34:36 51°24.96 3°2.99 39.809409 5.063258 34.318075 -0.781249
2003-06-24 08:35:36 51°25.03 3°2.67 38.868715 5.063469 34.319161 -0.781249
2003-06-24 08:36:36 51°25.09 3°2.34 40.655909 5.063258 34.31651 -0.74754
2003-06-24 08:37:36 51°25.15 3°2.01 43.662426 5.06368 34.319203 -0.781249
2003-06-24 08:38:36 51°25.21 3°1.68 41.323028 5.063786 34.319485 -0.781249
2003-06-24 08:39:36 51°25.28 3°1.35 41.629628 5.063891 34.319245 -0.781249
2003-06-24 08:40:36 51°25.37 3°1.04 39.097633 5.063997 34.320571 -0.74754
2003-06-24 08:41:36 51°25.55 3°0.84 40.951796 5.064208 34.322178 -0.74754
2003-06-24 08:42:36 51°25.79 3°0.81 41.837803 5.064208 34.321134 -0.781249
2003-06-24 08:43:36 51°26.02 3°0.79 40.13114 5.064419 34.321698 -0.781249
2003-06-24 08:44:36 51°26.26 3°0.77 39.343322 5.064736 34.323066 -0.74754
2003-06-24 08:45:36 51°26.5 3°0.75 39.044016 5.06463 34.322784 -0.781249
2003-06-24 08:46:36 51°26.74 3°0.74 39.408478 5.064947 34.324151 -0.74754
2003-06-24 08:47:36 51°26.99 3°0.72 39.744418 5.065158 34.325236 -0.781249
2003-06-24 08:48:36 51°27.23 3°0.71 40.452072 5.065264 34.325518 -0.74754
2003-06-24 08:49:36 51°27.47 3°0.69 40.98772 5.065475 34.32556 -0.814958
2003-06-24 08:50:36 51°27.72 3°0.68 35.733676 5.065475 34.324517 -0.781249
2003-06-24 08:51:36 51°27.96 3°0.67 36.787116 5.065897 34.326688 -0.781249
2003-06-24 08:52:36 51°28.2 3°0.65 36.09648 5.065791 34.325362 -0.781249
2003-06-24 08:53:36 51°28.44 3°0.64 35.591212 5.066319 34.328336 -0.781249
2003-06-24 08:54:36 51°28.69 3°0.62 35.605391 5.066425 34.327575 -0.781249
2003-06-24 08:55:36 51°28.93 3°0.61 38.090008 5.066741 34.329985 -0.781249
2003-06-24 08:56:36 51°29.17 3°0.61 35.761456 5.066952 34.330027 -0.74754
2003-06-24 08:57:36 51°29.41 3°0.6 38.6212 5.067163 34.331112 -0.781249
2003-06-24 08:58:36 51°29.65 3°0.6 35.28304 5.067163 34.330591 -0.814958
2003-06-24 08:59:36 51°29.89 3°0.59 37.163403 5.067586 34.332761 -0.74754
2003-06-24 09:00:36 51°30.13 3°0.59 37.722248 5.067375 34.330111 -0.781249
2003-06-24 09:01:36 51°30.37 3°0.58 36.834051 5.068008 34.334409 -0.814958
2003-06-24 09:02:36 51°30.61 3°0.57 35.47795 5.068219 34.334973 -0.781249
2003-06-24 09:03:36 51°30.86 3°0.56 38.627805 5.068219 34.334451 -0.781249
2003-06-24 09:04:36 51°31.1 3°0.56 35.194872 5.068536 34.335818 -0.814958
2003-06-24 09:05:36 51°31.34 3°0.55 40.000811 5.068641 34.335578 -0.814958
2003-06-24 09:06:36 51°31.58 3°0.56 40.074166 5.068747 34.334295 -0.814958
2003-06-24 09:07:36 51°31.82 3°0.57 40.503812 5.069169 34.336987 -0.781249
2003-06-24 09:08:36 51°32.06 3°0.59 37.635723 5.069274 34.336225 -0.781249
2003-06-24 09:09:36 51°32.31 3°0.64 39.705105 5.069591 34.338635 -0.781249
2003-06-24 09:10:36 51°32.55 3°0.69 39.226029 5.069802 34.338155 -0.74754
2003-06-24 09:11:36 51°32.79 3°0.74 40.172326 5.070013 34.338718 -0.781249
2003-06-24 09:12:36 51°33.03 3°0.79 37.471305 5.07033 34.340606 -0.781249
2003-06-24 09:13:36 51°33.28 3°0.83 40.964079 5.070541 34.340648 -0.74754
2003-06-24 09:14:36 51°33.52 3°0.87 36.185798 5.070752 34.341211 -0.781249
2003-06-24 09:15:36 51°33.76 3°0.91 39.751057 5.070647 34.340408 -0.814958
2003-06-24 09:16:36 51°33.99 3°0.94 38.63245 5.07128 34.343662 -0.781249
2003-06-24 09:17:36 51°34.23 3°0.98 39.685301 5.071174 34.341816 -0.781249
2003-06-24 09:18:36 51°34.43 3°0.83 39.976106 5.071491 34.344747 -0.781249
2003-06-24 09:19:36 51°34.42 3°0.51 42.675565 5.071702 34.344788 -0.781249
2003-06-24 09:20:36 51°34.29 3°0.24 41.536673 5.072019 34.346155 -0.74754
2003-06-24 09:21:36 51°34.17 2°59.96 40.00923 5.072124 34.346958 -0.781249
2003-06-24 09:22:36 51°34.04 2°59.69 38.319745 5.07223 34.347239 -0.781249
2003-06-24 09:23:36 51°33.91 2°59.43 38.170611 5.072441 34.346759 -0.781249
2003-06-24 09:24:36 51°33.77 2°59.17 38.202544 5.072336 34.345956 -0.781249
2003-06-24 09:25:36 51°33.64 2°58.9 39.470361 5.072652 34.347322 -0.781249
2003-06-24 09:26:36 51°33.51 2°58.64 38.745463 5.073074 34.34897 -0.781249
2003-06-24 09:27:36 51°33.37 2°58.38 38.262943 5.073074 34.348448 -0.781249
2003-06-24 09:28:36 51°33.24 2°58.12 38.914576 5.07318 34.347687 -0.781249
2003-06-24 09:29:36 51°33.11 2°57.85 38.198986 5.073391 34.348772 -0.781249
2003-06-24 09:30:36 51°32.97 2°57.59 37.605356 5.073497 34.348532 -0.74754
2003-06-24 09:31:36 51°32.84 2°57.33 38.654598 5.073813 34.349376 -0.781249
2003-06-24 09:32:36 51°32.71 2°57.07 37.97518 5.07413 34.351263 -0.781249
2003-06-24 09:33:36 51°32.57 2°56.81 40.069292 5.07413 34.351263 -0.74754
2003-06-24 09:34:36 51°32.44 2°56.55 38.171882 5.074552 34.352911 -0.781249
2003-06-24 09:35:36 51°32.31 2°56.29 37.833385 5.074658 34.352149 -0.74754
2003-06-24 09:36:36 51°32.18 2°56.03 38.330212 5.074552 34.350304 -0.74754
2003-06-24 09:37:36 51°32.05 2°55.75 39.03427 5.074658 34.350586 -0.781249
2003-06-24 09:38:36 51°31.93 2°55.48 39.33098 5.075185 34.353557 -0.781249
2003-06-24 09:39:36 51°31.81 2°55.2 39.199832 5.075185 34.352514 -0.781249
2003-06-24 09:40:36 51°31.69 2°54.93 38.406931 5.075713 34.355485 -0.74754
2003-06-24 09:41:36 51°31.57 2°54.65 39.845372 5.075713 34.355485 -0.814958
2003-06-24 09:42:36 51°31.45 2°54.37 39.296669 5.076135 34.356611 -0.74754
2003-06-24 09:43:36 51°31.34 2°54.09 38.793537 5.07603 34.354766 -0.74754
2003-06-24 09:44:36 51°31.23 2°53.8 40.396465 5.076558 34.356694 -0.814958
2003-06-24 09:45:36 51°31.11 2°53.52 39.075952 5.076874 34.359102 -0.814958
2003-06-24 09:46:36 51°31 2°53.23 40.08264 5.07698 34.358341 -0.781249
2003-06-24 09:47:36 51°30.89 2°52.95 38.725802 5.077085 34.35758 -0.781249
2003-06-24 09:48:36 51°30.78 2°52.67 38.618261 5.077402 34.358424 -0.781249
2003-06-24 09:49:36 51°30.66 2°52.38 38.841363 5.077613 34.359508 -0.781249
2003-06-24 09:50:36 51°30.55 2°52.1 39.029868 5.07793 34.360352 -0.781249
2003-06-24 09:51:36 51°30.44 2°51.82 36.512061 5.078035 34.360633 -0.781249
2003-06-24 09:52:36 51°30.33 2°51.54 39.209653 5.078246 34.360674 -0.781249
2003-06-24 09:53:36 51°30.22 2°51.26 40.694028 5.078458 34.360195 -0.781249
2003-06-24 09:54:36 51°30.11 2°50.98 39.336462 5.078563 34.360476 -0.71383
2003-06-24 09:55:36 51°30 2°50.71 37.480248 5.079091 34.362925 -0.781249
2003-06-24 09:56:36 51°29.89 2°50.42 40.474379 5.079302 34.363488 -0.74754
2003-06-24 09:57:36 51°29.78 2°50.14 37.674008 5.079513 34.36405 -0.814958
2003-06-24 09:58:36 51°29.67 2°49.86 37.758448 5.079724 34.364092 -0.71383
2003-06-24 09:59:36 51°29.56 2°49.58 39.574498 5.079724 34.363571 -0.74754
2003-06-24 10:00:36 51°29.45 2°49.3 39.289241 5.080252 34.365498 -0.781249
2003-06-24 10:01:36 51°29.34 2°49.02 39.582743 5.080252 34.364456 -0.781249
2003-06-24 10:02:36 51°29.23 2°48.74 40.189687 5.080674 34.366102 -0.781249
2003-06-24 10:03:36 51°29.06 2°48.56 37.174183 5.080885 34.366665 -0.781249
2003-06-24 10:04:36 51°28.85 2°48.5 39.958823 5.081308 34.369352 -0.74754
2003-06-24 10:05:36 51°28.63 2°48.55 40.47824 5.081519 34.370435 -0.814958
2003-06-24 10:06:36 51°28.42 2°48.64 38.9853 5.081624 34.369675 -0.781249
2003-06-24 10:07:36 51°28.2 2°48.73 35.747993 5.082046 34.371321 -0.814958
2003-06-24 10:08:36 51°27.98 2°48.81 40.241469 5.082257 34.371362 -0.814958
2003-06-24 10:09:36 51°27.77 2°48.89 38.851795 5.082257 34.370841 -0.781249
2003-06-24 10:10:36 51°27.55 2°48.97 38.992473 5.082469 34.36932 -0.781249
2003-06-24 10:11:36 51°27.33 2°49.04 39.397711 5.082785 34.370164 -0.814958
2003-06-24 10:12:36 51°27.12 2°49.12 40.346668 5.083207 34.371809 -0.781249
2003-06-24 10:13:36 51°26.9 2°49.13 41.92517 5.083102 34.369966 -0.74754
2003-06-24 10:14:36 51°26.7 2°49.02 40.128473 5.083841 34.374538 -0.74754
2003-06-24 10:15:36 51°26.53 2°48.83 38.710682 5.083841 34.370372 -0.814958
2003-06-24 10:16:36 51°26.41 2°48.56 39.009207 5.084263 34.372538 -0.74754
2003-06-24 10:17:36 51°26.3 2°48.28 38.932774 5.084368 34.371257 -0.74754
2003-06-24 10:18:36 51°26.19 2°47.99 40.42228 5.084896 34.373704 -0.781249
2003-06-24 10:19:36 51°26.08 2°47.71 39.344544 5.085318 34.37639 -0.781249
2003-06-24 10:20:36 51°25.96 2°47.44 41.32902 5.08553 34.37487 -0.781249
2003-06-24 10:21:36 51°25.82 2°47.19 41.083137 5.085741 34.375432 -0.74754
2003-06-24 10:22:36 51°25.66 2°46.97 40.635933 5.086163 34.377077 -0.781249
2003-06-24 10:23:36 51°25.48 2°46.81 41.295141 5.086268 34.376317 -0.781249
2003-06-24 10:24:36 51°25.29 2°46.66 40.695291 5.086796 34.378243 -0.781249
2003-06-24 10:25:36 51°25.11 2°46.5 38.313178 5.086902 34.376963 -0.781249
2003-06-24 10:26:36 51°24.92 2°46.35 37.559993 5.087429 34.378889 -0.74754
2003-06-24 10:27:36 51°24.73 2°46.21 38.301852 5.087641 34.379451 -0.781249
2003-06-24 10:28:36 51°24.53 2°46.09 37.986202 5.088274 34.381657 -0.814958
2003-06-24 10:29:36 51°24.32 2°45.99 37.072566 5.088274 34.381137 -0.814958
2003-06-24 10:30:36 51°24.11 2°45.91 37.395323 5.088591 34.3825 -0.74754
2003-06-24 10:31:36 51°23.9 2°45.85 37.049688 5.089013 34.383624 -0.74754
2003-06-24 10:32:36 51°23.68 2°45.78 38.404903 5.089224 34.383145 -0.781249
2003-06-24 10:33:36 51°23.47 2°45.7 37.619981 5.089752 34.385591 -0.781249
2003-06-24 10:34:36 51°23.26 2°45.63 36.744974 5.089752 34.38351 -0.781249
2003-06-24 10:35:36 51°23.04 2°45.57 37.284636 5.090068 34.384873 -0.781249
2003-06-24 10:36:36 51°22.83 2°45.52 35.87307 5.090385 34.385195 -0.781249
2003-06-24 10:37:36 51°22.61 2°45.46 36.914959 5.090807 34.386319 -0.781249
2003-06-24 10:38:36 51°22.39 2°45.44 37.69754 5.091018 34.385321 -0.781249
2003-06-24 10:39:36 51°22.21 2°45.36 35.15359 5.091124 34.386642 -0.781249
2003-06-24 10:40:36 51°22.14 2°45.24 36.679177 5.091546 34.387245 -0.781249
2003-06-24 10:41:36 51°22.09 2°45.17 36.472467 5.091968 34.387329 -0.74754
2003-06-24 10:42:36 51°22.06 2°45.11 37.190849 5.092179 34.386851 -0.781249
2003-06-24 10:43:36 51°21.95 2°45.12 37.796548 5.092813 34.390616 -0.781249
2003-06-24 10:44:36 51°21.82 2°45.32 36.724493 5.092918 34.387257 -0.781249
2003-06-24 10:45:36 51°21.67 2°45.59 36.9096 5.093446 34.390221 -0.781249
2003-06-24 10:46:36 51°21.51 2°45.86 37.945388 5.093974 34.394225 -0.814958
2003-06-24 10:47:36 51°21.35 2°46.12 38.001808 5.094396 34.392749 -0.74754
2003-06-24 10:48:36 51°21.18 2°46.38 37.274996 5.094607 34.391231 -0.781249
2003-06-24 10:49:36 51°21.01 2°46.64 39.433043 5.094818 34.390233 -0.781249
2003-06-24 10:50:36 51°20.84 2°46.9 38.193172 5.095346 34.392677 -0.74754
2003-06-24 10:51:36 51°20.67 2°47.15 37.912938 5.095874 34.393561 -0.781249
2003-06-24 10:52:36 51°20.5 2°47.41 39.053322 5.096296 34.393125 -0.74754
2003-06-24 10:53:36 51°20.34 2°47.65 37.57882 5.096718 34.394248 -0.781249
2003-06-24 10:54:36 51°20.16 2°47.9 37.428078 5.097035 34.393013 -0.781249
2003-06-24 10:55:36 51°20 2°48.15 36.561202 5.097562 34.394416 -0.781249
2003-06-24 10:56:36 51°19.83 2°48.4 38.693918 5.097985 34.393981 -0.74754
2003-06-24 10:57:36 51°19.66 2°48.64 39.103445 5.098301 34.395343 -0.781249
2003-06-24 10:58:36 51°19.5 2°48.9 37.32126 5.098829 34.396227 -0.814958
2003-06-24 10:59:36 51°19.34 2°49.17 36.809585 5.099357 34.396592 -0.781249
2003-06-24 11:00:36 51°19.17 2°49.43 38.609095 5.099674 34.397434 -0.74754
2003-06-24 11:01:36 51°19.01 2°49.68 39.372416 5.100096 34.396999 -0.781249
2003-06-24 11:02:36 51°18.84 2°49.94 39.310489 5.100729 34.400241 -0.814958
2003-06-24 11:03:36 51°18.67 2°50.19 39.582056 5.10094 34.398206 -0.74754
2003-06-24 11:04:36 51°18.49 2°50.44 39.920485 5.101468 34.398053 -0.781249
2003-06-24 11:05:36 51°18.32 2°50.69 41.405504 5.10189 34.400732 -0.781249
2003-06-24 11:06:36 51°18.17 2°50.97 39.287079 5.102207 34.400536 -0.781249
2003-06-24 11:07:36 51°18.03 2°51.26 39.60969 5.10284 34.402739 -0.781249
2003-06-24 11:08:36 51°17.88 2°51.54 39.676598 5.103157 34.400467 -0.781249
2003-06-24 11:09:36 51°17.74 2°51.82 39.512882 5.103579 34.40159 -0.814958
2003-06-24 11:10:36 51°17.59 2°52.1 38.144738 5.104107 34.402993 -0.781249
2003-06-24 11:11:36 51°17.41 2°52.3 36.89126 5.104529 34.403078 -0.74754
2003-06-24 11:12:36 51°17.2 2°52.43 39.001847 5.104846 34.402882 -0.781249
2003-06-24 11:13:36 51°16.99 2°52.57 38.331132 5.105479 34.404565 -0.74754
2003-06-24 11:14:36 51°16.79 2°52.72 38.669665 5.106007 34.405449 -0.781249
2003-06-24 11:15:36 51°16.58 2°52.87 38.453435 5.106429 34.405016 -0.781249
2003-06-24 11:16:36 51°16.38 2°53.02 39.978064 5.107062 34.406699 -0.781249
2003-06-24 11:17:36 51°16.17 2°53.17 39.165372 5.107484 34.406266 -0.781249
2003-06-24 11:18:36 51°15.96 2°53.32 38.920653 5.107907 34.406351 -0.781249
2003-06-24 11:19:36 51°15.74 2°53.46 38.04791 5.108223 34.405637 -0.781249
2003-06-24 11:20:36 51°15.54 2°53.63 38.133006 5.108962 34.408637 -0.781249
2003-06-24 11:21:36 51°15.34 2°53.8 39.076643 5.109384 34.408723 -0.781249
2003-06-24 11:22:36 51°15.14 2°53.97 38.847635 5.109807 34.407772 -0.74754
2003-06-24 11:23:36 51°14.95 2°54.17 38.614721 5.110545 34.410771 -0.814958
2003-06-24 11:24:36 51°14.79 2°54.39 38.721036 5.111073 34.412173 -0.781249
2003-06-24 11:25:36 51°14.64 2°54.6 36.478051 5.111495 34.412777 -0.781249
2003-06-24 11:26:36 51°14.49 2°54.81 38.478133 5.111812 34.411028 -0.74754